sensor_id;sensor_type;location;lat;lon;timestamp;P1;durP1;ratioP1;P2;durP2;ratioP2
55815;SDS011;41744;52.404;16.942;2022-08-03T00:01:27;8.88;;;5.57;;
55815;SDS011;41744;52.404;16.942;2022-08-03T00:03:53;10.70;;;5.85;;
55815;SDS011;41744;52.404;16.942;2022-08-03T00:06:19;12.95;;;6.30;;
55815;SDS011;41744;52.404;16.942;2022-08-03T00:08:45;10.65;;;5.97;;
55815;SDS011;41744;52.404;16.942;2022-08-03T00:11:11;9.15;;;5.45;;
55815;SDS011;41744;52.404;16.942;2022-08-03T00:13:37;11.48;;;6.38;;
55815;SDS011;41744;52.404;16.942;2022-08-03T00:16:03;11.85;;;6.20;;
55815;SDS011;41744;52.404;16.942;2022-08-03T00:18:30;10.98;;;6.00;;
55815;SDS011;41744;52.404;16.942;2022-08-03T00:20:56;12.85;;;6.53;;
55815;SDS011;41744;52.404;16.942;2022-08-03T00:23:22;8.65;;;5.85;;
55815;SDS011;41744;52.404;16.942;2022-08-03T00:25:48;9.23;;;5.90;;
55815;SDS011;41744;52.404;16.942;2022-08-03T00:28:14;8.65;;;6.28;;
55815;SDS011;41744;52.404;16.942;2022-08-03T00:30:40;9.48;;;5.93;;
55815;SDS011;41744;52.404;16.942;2022-08-03T00:33:05;10.05;;;5.53;;
55815;SDS011;41744;52.404;16.942;2022-08-03T00:35:34;10.45;;;5.70;;
55815;SDS011;41744;52.404;16.942;2022-08-03T00:38:00;10.20;;;5.95;;
55815;SDS011;41744;52.404;16.942;2022-08-03T00:40:26;9.77;;;5.55;;
55815;SDS011;41744;52.404;16.942;2022-08-03T00:42:53;9.57;;;6.10;;
55815;SDS011;41744;52.404;16.942;2022-08-03T00:45:21;10.90;;;5.93;;
55815;SDS011;41744;52.404;16.942;2022-08-03T00:47:47;9.82;;;5.63;;
55815;SDS011;41744;52.404;16.942;2022-08-03T00:50:14;10.85;;;6.13;;
55815;SDS011;41744;52.404;16.942;2022-08-03T00:52:40;7.78;;;5.55;;
55815;SDS011;41744;52.404;16.942;2022-08-03T00:55:06;12.10;;;5.78;;
55815;SDS011;41744;52.404;16.942;2022-08-03T00:57:32;9.55;;;5.70;;
55815;SDS011;41744;52.404;16.942;2022-08-03T00:59:58;8.27;;;5.57;;
55815;SDS011;41744;52.404;16.942;2022-08-03T01:02:25;10.02;;;5.88;;
55815;SDS011;41744;52.404;16.942;2022-08-03T01:04:51;10.05;;;5.60;;
55815;SDS011;41744;52.404;16.942;2022-08-03T01:07:24;10.82;;;5.88;;
55815;SDS011;41744;52.404;16.942;2022-08-03T01:12:38;9.98;;;5.85;;
55815;SDS011;41744;52.404;16.942;2022-08-03T01:20:06;10.35;;;6.38;;
55815;SDS011;41744;52.404;16.942;2022-08-03T01:28:09;9.88;;;5.90;;
55815;SDS011;41744;52.404;16.942;2022-08-03T01:30:39;11.77;;;6.30;;
55815;SDS011;41744;52.404;16.942;2022-08-03T01:33:08;10.32;;;6.03;;
55815;SDS011;41744;52.404;16.942;2022-08-03T01:36:10;14.20;;;6.15;;
55815;SDS011;41744;52.404;16.942;2022-08-03T01:38:31;15.13;;;7.20;;
55815;SDS011;41744;52.404;16.942;2022-08-03T01:41:00;13.98;;;5.95;;
55815;SDS011;41744;52.404;16.942;2022-08-03T01:43:29;14.13;;;6.57;;
55815;SDS011;41744;52.404;16.942;2022-08-03T01:45:55;10.85;;;6.50;;
55815;SDS011;41744;52.404;16.942;2022-08-03T01:48:22;12.02;;;6.70;;
55815;SDS011;41744;52.404;16.942;2022-08-03T01:50:48;17.50;;;6.35;;
55815;SDS011;41744;52.404;16.942;2022-08-03T01:53:16;9.15;;;6.25;;
55815;SDS011;41744;52.404;16.942;2022-08-03T01:55:43;8.82;;;5.65;;
55815;SDS011;41744;52.404;16.942;2022-08-03T01:58:10;10.18;;;6.07;;
55815;SDS011;41744;52.404;16.942;2022-08-03T02:00:38;15.45;;;6.35;;
55815;SDS011;41744;52.404;16.942;2022-08-03T02:03:05;12.30;;;6.45;;
55815;SDS011;41744;52.404;16.942;2022-08-03T02:05:32;16.50;;;6.28;;
55815;SDS011;41744;52.404;16.942;2022-08-03T02:07:58;12.07;;;6.13;;
55815;SDS011;41744;52.404;16.942;2022-08-03T02:10:25;18.15;;;5.85;;
55815;SDS011;41744;52.404;16.942;2022-08-03T02:12:52;15.60;;;6.57;;
55815;SDS011;41744;52.404;16.942;2022-08-03T02:15:19;17.05;;;6.30;;
55815;SDS011;41744;52.404;16.942;2022-08-03T02:17:46;20.42;;;6.43;;
55815;SDS011;41744;52.404;16.942;2022-08-03T02:20:13;14.90;;;5.75;;
55815;SDS011;41744;52.404;16.942;2022-08-03T02:22:41;22.60;;;6.82;;
55815;SDS011;41744;52.404;16.942;2022-08-03T02:25:08;8.93;;;5.45;;
55815;SDS011;41744;52.404;16.942;2022-08-03T02:27:34;17.65;;;6.00;;
55815;SDS011;41744;52.404;16.942;2022-08-03T02:30:03;12.30;;;5.70;;
55815;SDS011;41744;52.404;16.942;2022-08-03T02:32:31;11.15;;;5.47;;
55815;SDS011;41744;52.404;16.942;2022-08-03T02:34:59;12.75;;;6.38;;
55815;SDS011;41744;52.404;16.942;2022-08-03T02:37:26;11.68;;;6.13;;
55815;SDS011;41744;52.404;16.942;2022-08-03T02:39:56;14.38;;;6.00;;
55815;SDS011;41744;52.404;16.942;2022-08-03T02:42:23;11.95;;;6.10;;
55815;SDS011;41744;52.404;16.942;2022-08-03T02:44:49;13.27;;;6.18;;
55815;SDS011;41744;52.404;16.942;2022-08-03T02:47:18;13.45;;;6.20;;
55815;SDS011;41744;52.404;16.942;2022-08-03T02:49:45;10.32;;;5.85;;
55815;SDS011;41744;52.404;16.942;2022-08-03T02:52:12;14.95;;;6.05;;
55815;SDS011;41744;52.404;16.942;2022-08-03T02:54:38;12.25;;;6.05;;
55815;SDS011;41744;52.404;16.942;2022-08-03T02:57:07;10.45;;;5.95;;
55815;SDS011;41744;52.404;16.942;2022-08-03T02:59:34;11.75;;;6.07;;
55815;SDS011;41744;52.404;16.942;2022-08-03T03:02:01;9.23;;;6.00;;
55815;SDS011;41744;52.404;16.942;2022-08-03T03:04:27;11.23;;;6.20;;
55815;SDS011;41744;52.404;16.942;2022-08-03T03:06:55;10.70;;;5.82;;
55815;SDS011;41744;52.404;16.942;2022-08-03T03:09:21;9.05;;;6.18;;
55815;SDS011;41744;52.404;16.942;2022-08-03T03:11:48;9.40;;;5.93;;
55815;SDS011;41744;52.404;16.942;2022-08-03T03:14:15;10.93;;;5.90;;
55815;SDS011;41744;52.404;16.942;2022-08-03T03:16:42;10.43;;;5.78;;
55815;SDS011;41744;52.404;16.942;2022-08-03T03:19:09;7.47;;;5.45;;
55815;SDS011;41744;52.404;16.942;2022-08-03T03:21:36;9.02;;;5.93;;
55815;SDS011;41744;52.404;16.942;2022-08-03T03:24:02;9.88;;;6.65;;
55815;SDS011;41744;52.404;16.942;2022-08-03T03:26:29;10.30;;;6.38;;
55815;SDS011;41744;52.404;16.942;2022-08-03T03:28:55;11.68;;;6.03;;
55815;SDS011;41744;52.404;16.942;2022-08-03T03:31:21;11.60;;;6.40;;
55815;SDS011;41744;52.404;16.942;2022-08-03T03:33:47;8.32;;;6.18;;
55815;SDS011;41744;52.404;16.942;2022-08-03T03:36:13;10.15;;;5.82;;
55815;SDS011;41744;52.404;16.942;2022-08-03T03:38:39;8.07;;;5.28;;
55815;SDS011;41744;52.404;16.942;2022-08-03T03:41:05;8.95;;;5.63;;
55815;SDS011;41744;52.404;16.942;2022-08-03T03:43:32;8.73;;;5.90;;
55815;SDS011;41744;52.404;16.942;2022-08-03T03:45:58;8.73;;;5.60;;
55815;SDS011;41744;52.404;16.942;2022-08-03T03:48:25;8.55;;;5.65;;
55815;SDS011;41744;52.404;16.942;2022-08-03T03:50:51;9.48;;;6.10;;
55815;SDS011;41744;52.404;16.942;2022-08-03T03:53:17;11.40;;;5.97;;
55815;SDS011;41744;52.404;16.942;2022-08-03T03:55:43;11.35;;;6.13;;
55815;SDS011;41744;52.404;16.942;2022-08-03T03:58:09;9.07;;;6.05;;
55815;SDS011;41744;52.404;16.942;2022-08-03T04:00:35;10.23;;;6.25;;
55815;SDS011;41744;52.404;16.942;2022-08-03T04:03:02;9.68;;;6.30;;
55815;SDS011;41744;52.404;16.942;2022-08-03T04:05:28;9.23;;;5.93;;
55815;SDS011;41744;52.404;16.942;2022-08-03T04:08:13;8.63;;;5.57;;
55815;SDS011;41744;52.404;16.942;2022-08-03T04:13:30;11.77;;;6.18;;
55815;SDS011;41744;52.404;16.942;2022-08-03T04:15:56;10.18;;;6.53;;
55815;SDS011;41744;52.404;16.942;2022-08-03T04:18:23;10.02;;;5.40;;
55815;SDS011;41744;52.404;16.942;2022-08-03T04:20:50;9.77;;;6.38;;
55815;SDS011;41744;52.404;16.942;2022-08-03T04:23:19;16.02;;;6.65;;
55815;SDS011;41744;52.404;16.942;2022-08-03T04:25:47;8.70;;;6.18;;
55815;SDS011;41744;52.404;16.942;2022-08-03T04:28:14;9.27;;;5.80;;
55815;SDS011;41744;52.404;16.942;2022-08-03T04:30:40;11.98;;;6.88;;
55815;SDS011;41744;52.404;16.942;2022-08-03T04:33:12;13.43;;;6.63;;
55815;SDS011;41744;52.404;16.942;2022-08-03T04:35:38;11.88;;;6.47;;
55815;SDS011;41744;52.404;16.942;2022-08-03T04:38:05;11.75;;;6.57;;
55815;SDS011;41744;52.404;16.942;2022-08-03T04:40:33;9.57;;;6.07;;
55815;SDS011;41744;52.404;16.942;2022-08-03T04:42:59;11.02;;;6.10;;
55815;SDS011;41744;52.404;16.942;2022-08-03T04:45:27;9.18;;;6.40;;
55815;SDS011;41744;52.404;16.942;2022-08-03T04:47:53;8.57;;;6.20;;
55815;SDS011;41744;52.404;16.942;2022-08-03T04:50:20;10.63;;;6.80;;
55815;SDS011;41744;52.404;16.942;2022-08-03T04:52:46;10.45;;;6.38;;
55815;SDS011;41744;52.404;16.942;2022-08-03T04:55:23;12.55;;;6.53;;
55815;SDS011;41744;52.404;16.942;2022-08-03T04:57:49;13.50;;;6.78;;
55815;SDS011;41744;52.404;16.942;2022-08-03T05:00:15;16.00;;;6.70;;
55815;SDS011;41744;52.404;16.942;2022-08-03T05:02:42;10.50;;;6.75;;
55815;SDS011;41744;52.404;16.942;2022-08-03T05:05:08;12.85;;;6.40;;
55815;SDS011;41744;52.404;16.942;2022-08-03T05:07:35;13.77;;;6.78;;
55815;SDS011;41744;52.404;16.942;2022-08-03T05:10:05;13.02;;;7.00;;
55815;SDS011;41744;52.404;16.942;2022-08-03T05:12:32;9.77;;;6.53;;
55815;SDS011;41744;52.404;16.942;2022-08-03T05:14:58;10.68;;;6.47;;
55815;SDS011;41744;52.404;16.942;2022-08-03T05:17:24;10.88;;;6.95;;
55815;SDS011;41744;52.404;16.942;2022-08-03T05:19:50;10.10;;;6.28;;
55815;SDS011;41744;52.404;16.942;2022-08-03T05:22:16;12.15;;;6.47;;
55815;SDS011;41744;52.404;16.942;2022-08-03T05:24:42;11.20;;;6.45;;
55815;SDS011;41744;52.404;16.942;2022-08-03T05:27:08;10.93;;;6.82;;
55815;SDS011;41744;52.404;16.942;2022-08-03T05:29:34;8.70;;;5.90;;
55815;SDS011;41744;52.404;16.942;2022-08-03T05:32:00;10.95;;;6.00;;
55815;SDS011;41744;52.404;16.942;2022-08-03T05:34:26;9.00;;;5.40;;
55815;SDS011;41744;52.404;16.942;2022-08-03T05:36:52;9.80;;;6.38;;
55815;SDS011;41744;52.404;16.942;2022-08-03T05:39:18;8.90;;;6.18;;
55815;SDS011;41744;52.404;16.942;2022-08-03T05:41:44;8.68;;;5.88;;
55815;SDS011;41744;52.404;16.942;2022-08-03T05:44:10;8.80;;;5.57;;
55815;SDS011;41744;52.404;16.942;2022-08-03T05:46:36;9.75;;;6.13;;
55815;SDS011;41744;52.404;16.942;2022-08-03T05:49:03;10.52;;;5.95;;
55815;SDS011;41744;52.404;16.942;2022-08-03T05:51:29;14.50;;;6.57;;
55815;SDS011;41744;52.404;16.942;2022-08-03T05:53:55;9.85;;;5.80;;
55815;SDS011;41744;52.404;16.942;2022-08-03T05:56:22;12.75;;;6.13;;
55815;SDS011;41744;52.404;16.942;2022-08-03T05:58:49;10.02;;;6.03;;
55815;SDS011;41744;52.404;16.942;2022-08-03T06:01:16;9.20;;;5.70;;
55815;SDS011;41744;52.404;16.942;2022-08-03T06:03:43;13.20;;;6.35;;
55815;SDS011;41744;52.404;16.942;2022-08-03T06:06:09;11.23;;;6.25;;
55815;SDS011;41744;52.404;16.942;2022-08-03T06:08:35;9.82;;;5.90;;
55815;SDS011;41744;52.404;16.942;2022-08-03T06:11:02;11.38;;;5.82;;
55815;SDS011;41744;52.404;16.942;2022-08-03T06:13:28;7.68;;;5.40;;
55815;SDS011;41744;52.404;16.942;2022-08-03T06:15:54;7.45;;;5.75;;
55815;SDS011;41744;52.404;16.942;2022-08-03T06:18:20;7.88;;;5.35;;
55815;SDS011;41744;52.404;16.942;2022-08-03T06:20:48;8.45;;;5.05;;
55815;SDS011;41744;52.404;16.942;2022-08-03T06:23:15;7.32;;;5.40;;
55815;SDS011;41744;52.404;16.942;2022-08-03T06:25:41;10.73;;;5.85;;
55815;SDS011;41744;52.404;16.942;2022-08-03T06:28:07;8.38;;;4.88;;
55815;SDS011;41744;52.404;16.942;2022-08-03T06:30:33;16.73;;;5.20;;
55815;SDS011;41744;52.404;16.942;2022-08-03T06:32:59;9.93;;;5.50;;
55815;SDS011;41744;52.404;16.942;2022-08-03T06:35:25;18.73;;;6.55;;
55815;SDS011;41744;52.404;16.942;2022-08-03T06:37:52;7.10;;;4.88;;
55815;SDS011;41744;52.404;16.942;2022-08-03T06:40:22;10.80;;;5.05;;
55815;SDS011;41744;52.404;16.942;2022-08-03T06:42:55;7.85;;;4.72;;
55815;SDS011;41744;52.404;16.942;2022-08-03T06:45:21;7.03;;;4.70;;
55815;SDS011;41744;52.404;16.942;2022-08-03T06:47:54;6.70;;;4.10;;
55815;SDS011;41744;52.404;16.942;2022-08-03T06:50:24;11.60;;;4.60;;
55815;SDS011;41744;52.404;16.942;2022-08-03T06:52:50;6.05;;;4.28;;
55815;SDS011;41744;52.404;16.942;2022-08-03T06:55:16;7.47;;;4.65;;
55815;SDS011;41744;52.404;16.942;2022-08-03T06:57:42;8.32;;;4.35;;
55815;SDS011;41744;52.404;16.942;2022-08-03T07:00:08;8.43;;;4.57;;
55815;SDS011;41744;52.404;16.942;2022-08-03T07:02:35;5.78;;;4.40;;
55815;SDS011;41744;52.404;16.942;2022-08-03T07:05:01;12.05;;;4.63;;
55815;SDS011;41744;52.404;16.942;2022-08-03T07:07:27;5.88;;;3.95;;
55815;SDS011;41744;52.404;16.942;2022-08-03T07:09:54;6.90;;;3.70;;
55815;SDS011;41744;52.404;16.942;2022-08-03T07:12:19;4.88;;;3.85;;
55815;SDS011;41744;52.404;16.942;2022-08-03T07:14:46;4.13;;;3.28;;
55815;SDS011;41744;52.404;16.942;2022-08-03T07:17:12;7.63;;;3.67;;
55815;SDS011;41744;52.404;16.942;2022-08-03T07:19:38;5.82;;;3.53;;
55815;SDS011;41744;52.404;16.942;2022-08-03T07:22:04;6.68;;;3.50;;
55815;SDS011;41744;52.404;16.942;2022-08-03T07:24:30;4.53;;;3.80;;
55815;SDS011;41744;52.404;16.942;2022-08-03T07:26:56;8.05;;;3.88;;
55815;SDS011;41744;52.404;16.942;2022-08-03T07:29:22;4.00;;;3.60;;
55815;SDS011;41744;52.404;16.942;2022-08-03T07:31:49;5.43;;;3.50;;
55815;SDS011;41744;52.404;16.942;2022-08-03T07:34:15;4.55;;;3.92;;
55815;SDS011;41744;52.404;16.942;2022-08-03T07:36:41;5.72;;;3.80;;
55815;SDS011;41744;52.404;16.942;2022-08-03T07:39:06;7.57;;;3.65;;
55815;SDS011;41744;52.404;16.942;2022-08-03T07:41:33;7.13;;;3.72;;
55815;SDS011;41744;52.404;16.942;2022-08-03T07:43:59;8.15;;;3.72;;
55815;SDS011;41744;52.404;16.942;2022-08-03T07:46:25;5.70;;;3.53;;
55815;SDS011;41744;52.404;16.942;2022-08-03T07:48:51;5.82;;;3.50;;
55815;SDS011;41744;52.404;16.942;2022-08-03T07:51:17;5.03;;;3.60;;
55815;SDS011;41744;52.404;16.942;2022-08-03T07:53:43;4.78;;;3.53;;
55815;SDS011;41744;52.404;16.942;2022-08-03T07:56:09;5.88;;;3.90;;
55815;SDS011;41744;52.404;16.942;2022-08-03T07:58:35;7.53;;;4.28;;
55815;SDS011;41744;52.404;16.942;2022-08-03T08:01:01;10.23;;;3.75;;
55815;SDS011;41744;52.404;16.942;2022-08-03T08:03:27;7.03;;;4.05;;
55815;SDS011;41744;52.404;16.942;2022-08-03T08:05:53;8.38;;;3.80;;
55815;SDS011;41744;52.404;16.942;2022-08-03T08:08:19;4.68;;;3.53;;
55815;SDS011;41744;52.404;16.942;2022-08-03T08:10:45;6.38;;;3.70;;
55815;SDS011;41744;52.404;16.942;2022-08-03T08:13:11;4.70;;;3.92;;
55815;SDS011;41744;52.404;16.942;2022-08-03T08:15:37;6.30;;;4.00;;
55815;SDS011;41744;52.404;16.942;2022-08-03T08:18:03;6.95;;;3.88;;
55815;SDS011;41744;52.404;16.942;2022-08-03T08:20:31;4.43;;;3.55;;
55815;SDS011;41744;52.404;16.942;2022-08-03T08:23:02;6.13;;;4.28;;
55815;SDS011;41744;52.404;16.942;2022-08-03T08:25:28;7.88;;;4.00;;
55815;SDS011;41744;52.404;16.942;2022-08-03T08:27:55;8.52;;;4.15;;
55815;SDS011;41744;52.404;16.942;2022-08-03T08:30:21;5.85;;;3.83;;
55815;SDS011;41744;52.404;16.942;2022-08-03T08:32:48;6.38;;;4.20;;
55815;SDS011;41744;52.404;16.942;2022-08-03T08:35:14;4.20;;;3.80;;
55815;SDS011;41744;52.404;16.942;2022-08-03T08:37:41;5.75;;;3.75;;
55815;SDS011;41744;52.404;16.942;2022-08-03T08:40:07;4.60;;;4.13;;
55815;SDS011;41744;52.404;16.942;2022-08-03T08:42:36;5.30;;;3.75;;
55815;SDS011;41744;52.404;16.942;2022-08-03T08:45:03;7.47;;;3.95;;
55815;SDS011;41744;52.404;16.942;2022-08-03T08:47:30;6.65;;;4.18;;
55815;SDS011;41744;52.404;16.942;2022-08-03T08:49:57;5.50;;;3.80;;
55815;SDS011;41744;52.404;16.942;2022-08-03T08:52:24;5.50;;;3.60;;
55815;SDS011;41744;52.404;16.942;2022-08-03T08:54:51;5.40;;;3.75;;
55815;SDS011;41744;52.404;16.942;2022-08-03T08:57:17;4.50;;;4.00;;
55815;SDS011;41744;52.404;16.942;2022-08-03T08:59:44;5.25;;;3.50;;
55815;SDS011;41744;52.404;16.942;2022-08-03T09:02:10;5.85;;;4.15;;
55815;SDS011;41744;52.404;16.942;2022-08-03T09:04:37;5.43;;;3.88;;
55815;SDS011;41744;52.404;16.942;2022-08-03T09:07:03;4.97;;;3.80;;
55815;SDS011;41744;52.404;16.942;2022-08-03T09:09:30;5.93;;;3.80;;
55815;SDS011;41744;52.404;16.942;2022-08-03T09:11:56;6.45;;;3.60;;
55815;SDS011;41744;52.404;16.942;2022-08-03T09:14:22;4.97;;;3.75;;
55815;SDS011;41744;52.404;16.942;2022-08-03T09:16:55;5.78;;;3.80;;
55815;SDS011;41744;52.404;16.942;2022-08-03T09:19:28;6.07;;;3.50;;
55815;SDS011;41744;52.404;16.942;2022-08-03T09:24:57;5.00;;;4.03;;
55815;SDS011;41744;52.404;16.942;2022-08-03T09:27:23;10.15;;;3.97;;
55815;SDS011;41744;52.404;16.942;2022-08-03T09:29:50;8.00;;;3.47;;
55815;SDS011;41744;52.404;16.942;2022-08-03T09:32:20;4.03;;;3.58;;
55815;SDS011;41744;52.404;16.942;2022-08-03T09:34:47;5.35;;;4.00;;
55815;SDS011;41744;52.404;16.942;2022-08-03T09:37:14;5.38;;;3.60;;
55815;SDS011;41744;52.404;16.942;2022-08-03T09:39:41;5.13;;;3.70;;
55815;SDS011;41744;52.404;16.942;2022-08-03T09:42:13;5.43;;;3.55;;
55815;SDS011;41744;52.404;16.942;2022-08-03T09:44:44;4.57;;;3.58;;
55815;SDS011;41744;52.404;16.942;2022-08-03T09:47:12;5.65;;;3.50;;
55815;SDS011;41744;52.404;16.942;2022-08-03T09:49:38;4.45;;;3.42;;
55815;SDS011;41744;52.404;16.942;2022-08-03T09:52:14;6.32;;;3.55;;
55815;SDS011;41744;52.404;16.942;2022-08-03T09:54:42;4.30;;;3.17;;
55815;SDS011;41744;52.404;16.942;2022-08-03T09:57:24;5.18;;;3.35;;
55815;SDS011;41744;52.404;16.942;2022-08-03T09:59:51;4.15;;;3.22;;
55815;SDS011;41744;52.404;16.942;2022-08-03T10:02:21;4.18;;;3.47;;
55815;SDS011;41744;52.404;16.942;2022-08-03T10:04:48;3.63;;;3.28;;
55815;SDS011;41744;52.404;16.942;2022-08-03T10:07:16;4.72;;;3.45;;
55815;SDS011;41744;52.404;16.942;2022-08-03T10:09:59;5.45;;;3.40;;
55815;SDS011;41744;52.404;16.942;2022-08-03T10:12:26;3.67;;;3.10;;
55815;SDS011;41744;52.404;16.942;2022-08-03T10:14:52;3.65;;;3.22;;
55815;SDS011;41744;52.404;16.942;2022-08-03T10:17:19;5.72;;;3.42;;
55815;SDS011;41744;52.404;16.942;2022-08-03T10:19:45;4.07;;;3.00;;
55815;SDS011;41744;52.404;16.942;2022-08-03T10:22:15;4.15;;;2.97;;
55815;SDS011;41744;52.404;16.942;2022-08-03T10:24:47;7.38;;;3.28;;
55815;SDS011;41744;52.404;16.942;2022-08-03T10:27:14;3.60;;;3.20;;
55815;SDS011;41744;52.404;16.942;2022-08-03T10:29:42;6.60;;;3.40;;
55815;SDS011;41744;52.404;16.942;2022-08-03T10:32:20;5.38;;;3.40;;
55815;SDS011;41744;52.404;16.942;2022-08-03T10:34:47;3.75;;;3.20;;
55815;SDS011;41744;52.404;16.942;2022-08-03T10:37:16;3.13;;;2.83;;
55815;SDS011;41744;52.404;16.942;2022-08-03T10:39:43;4.22;;;3.10;;
55815;SDS011;41744;52.404;16.942;2022-08-03T10:42:25;3.45;;;3.00;;
55815;SDS011;41744;52.404;16.942;2022-08-03T10:44:59;5.00;;;2.90;;
55815;SDS011;41744;52.404;16.942;2022-08-03T10:47:28;3.38;;;2.95;;
55815;SDS011;41744;52.404;16.942;2022-08-03T10:49:54;7.55;;;3.30;;
55815;SDS011;41744;52.404;16.942;2022-08-03T10:52:20;5.57;;;2.97;;
55815;SDS011;41744;52.404;16.942;2022-08-03T10:54:46;3.50;;;3.10;;
55815;SDS011;41744;52.404;16.942;2022-08-03T10:57:49;3.33;;;3.03;;
55815;SDS011;41744;52.404;16.942;2022-08-03T11:00:18;3.97;;;3.15;;
55815;SDS011;41744;52.404;16.942;2022-08-03T11:05:26;3.28;;;2.67;;
55815;SDS011;41744;52.404;16.942;2022-08-03T11:10:37;3.75;;;3.25;;
55815;SDS011;41744;52.404;16.942;2022-08-03T11:13:06;11.88;;;3.45;;
55815;SDS011;41744;52.404;16.942;2022-08-03T11:15:34;6.18;;;3.50;;
55815;SDS011;41744;52.404;16.942;2022-08-03T11:18:10;5.93;;;2.92;;
55815;SDS011;41744;52.404;16.942;2022-08-03T11:20:46;6.53;;;3.45;;
55815;SDS011;41744;52.404;16.942;2022-08-03T11:23:12;3.45;;;3.03;;
55815;SDS011;41744;52.404;16.942;2022-08-03T11:28:25;6.35;;;3.38;;
55815;SDS011;41744;52.404;16.942;2022-08-03T11:30:52;9.23;;;3.28;;
55815;SDS011;41744;52.404;16.942;2022-08-03T11:33:36;5.95;;;3.50;;
55815;SDS011;41744;52.404;16.942;2022-08-03T11:36:02;9.32;;;3.20;;
55815;SDS011;41744;52.404;16.942;2022-08-03T11:38:28;3.65;;;3.10;;
55815;SDS011;41744;52.404;16.942;2022-08-03T11:40:54;5.85;;;3.70;;
55815;SDS011;41744;52.404;16.942;2022-08-03T11:48:21;3.78;;;3.25;;
55815;SDS011;41744;52.404;16.942;2022-08-03T11:50:48;3.88;;;3.10;;
55815;SDS011;41744;52.404;16.942;2022-08-03T11:53:15;6.15;;;3.28;;
55815;SDS011;41744;52.404;16.942;2022-08-03T11:55:42;4.32;;;3.03;;
55815;SDS011;41744;52.404;16.942;2022-08-03T11:58:14;4.82;;;3.00;;
55815;SDS011;41744;52.404;16.942;2022-08-03T12:00:40;4.72;;;3.00;;
55815;SDS011;41744;52.404;16.942;2022-08-03T12:03:07;5.70;;;2.97;;
55815;SDS011;41744;52.404;16.942;2022-08-03T12:05:34;3.83;;;2.97;;
55815;SDS011;41744;52.404;16.942;2022-08-03T12:08:00;3.35;;;2.88;;
55815;SDS011;41744;52.404;16.942;2022-08-03T12:10:27;6.25;;;3.10;;
55815;SDS011;41744;52.404;16.942;2022-08-03T12:12:56;6.70;;;3.40;;
55815;SDS011;41744;52.404;16.942;2022-08-03T12:15:24;4.78;;;2.65;;
55815;SDS011;41744;52.404;16.942;2022-08-03T12:17:50;8.63;;;3.45;;
55815;SDS011;41744;52.404;16.942;2022-08-03T12:20:20;4.78;;;3.03;;
55815;SDS011;41744;52.404;16.942;2022-08-03T12:22:47;4.57;;;2.78;;
55815;SDS011;41744;52.404;16.942;2022-08-03T12:25:46;3.13;;;2.80;;
55815;SDS011;41744;52.404;16.942;2022-08-03T12:30:40;5.40;;;3.03;;
55815;SDS011;41744;52.404;16.942;2022-08-03T12:33:14;3.42;;;2.75;;
55815;SDS011;41744;52.404;16.942;2022-08-03T12:35:40;4.15;;;2.70;;
55815;SDS011;41744;52.404;16.942;2022-08-03T12:38:06;4.45;;;2.70;;
55815;SDS011;41744;52.404;16.942;2022-08-03T12:40:32;5.07;;;2.88;;
55815;SDS011;41744;52.404;16.942;2022-08-03T12:42:58;3.95;;;2.92;;
55815;SDS011;41744;52.404;16.942;2022-08-03T12:45:26;5.68;;;2.78;;
55815;SDS011;41744;52.404;16.942;2022-08-03T12:47:55;4.25;;;2.80;;
55815;SDS011;41744;52.404;16.942;2022-08-03T12:50:23;7.47;;;3.10;;
55815;SDS011;41744;52.404;16.942;2022-08-03T12:52:49;3.00;;;2.70;;
55815;SDS011;41744;52.404;16.942;2022-08-03T12:55:18;3.50;;;2.90;;
55815;SDS011;41744;52.404;16.942;2022-08-03T12:57:45;4.03;;;3.25;;
55815;SDS011;41744;52.404;16.942;2022-08-03T13:00:11;3.38;;;2.85;;
55815;SDS011;41744;52.404;16.942;2022-08-03T13:02:37;6.68;;;3.20;;
55815;SDS011;41744;52.404;16.942;2022-08-03T13:05:10;7.50;;;3.15;;
55815;SDS011;41744;52.404;16.942;2022-08-03T13:07:40;5.60;;;3.00;;
55815;SDS011;41744;52.404;16.942;2022-08-03T13:10:07;6.03;;;3.20;;
55815;SDS011;41744;52.404;16.942;2022-08-03T13:12:44;7.30;;;3.15;;
55815;SDS011;41744;52.404;16.942;2022-08-03T13:15:10;3.42;;;2.70;;
55815;SDS011;41744;52.404;16.942;2022-08-03T13:17:36;5.82;;;3.30;;
55815;SDS011;41744;52.404;16.942;2022-08-03T13:20:02;4.43;;;2.95;;
55815;SDS011;41744;52.404;16.942;2022-08-03T13:22:28;10.93;;;3.00;;
55815;SDS011;41744;52.404;16.942;2022-08-03T13:24:55;5.88;;;3.67;;
55815;SDS011;41744;52.404;16.942;2022-08-03T13:27:21;3.35;;;2.78;;
55815;SDS011;41744;52.404;16.942;2022-08-03T13:29:47;4.20;;;3.28;;
55815;SDS011;41744;52.404;16.942;2022-08-03T13:32:13;5.28;;;2.92;;
55815;SDS011;41744;52.404;16.942;2022-08-03T13:34:39;3.58;;;2.90;;
55815;SDS011;41744;52.404;16.942;2022-08-03T13:37:05;6.65;;;2.88;;
55815;SDS011;41744;52.404;16.942;2022-08-03T13:39:31;6.55;;;3.10;;
55815;SDS011;41744;52.404;16.942;2022-08-03T13:41:57;3.70;;;3.08;;
55815;SDS011;41744;52.404;16.942;2022-08-03T13:44:23;4.20;;;3.25;;
55815;SDS011;41744;52.404;16.942;2022-08-03T13:46:49;4.85;;;2.92;;
55815;SDS011;41744;52.404;16.942;2022-08-03T13:49:15;3.58;;;3.17;;
55815;SDS011;41744;52.404;16.942;2022-08-03T13:51:42;4.57;;;3.08;;
55815;SDS011;41744;52.404;16.942;2022-08-03T13:54:08;4.00;;;3.08;;
55815;SDS011;41744;52.404;16.942;2022-08-03T13:56:34;5.55;;;3.30;;
55815;SDS011;41744;52.404;16.942;2022-08-03T13:58:59;3.17;;;2.85;;
55815;SDS011;41744;52.404;16.942;2022-08-03T14:01:25;5.43;;;2.80;;
55815;SDS011;41744;52.404;16.942;2022-08-03T14:03:52;5.63;;;3.10;;
55815;SDS011;41744;52.404;16.942;2022-08-03T14:06:20;5.13;;;3.13;;
55815;SDS011;41744;52.404;16.942;2022-08-03T14:08:46;4.65;;;3.00;;
55815;SDS011;41744;52.404;16.942;2022-08-03T14:11:13;5.32;;;3.45;;
55815;SDS011;41744;52.404;16.942;2022-08-03T14:13:39;5.63;;;3.30;;
55815;SDS011;41744;52.404;16.942;2022-08-03T14:16:05;4.25;;;2.90;;
55815;SDS011;41744;52.404;16.942;2022-08-03T14:18:31;6.22;;;3.40;;
55815;SDS011;41744;52.404;16.942;2022-08-03T14:20:58;7.90;;;3.03;;
55815;SDS011;41744;52.404;16.942;2022-08-03T14:23:24;5.18;;;3.10;;
55815;SDS011;41744;52.404;16.942;2022-08-03T14:25:50;4.03;;;3.08;;
55815;SDS011;41744;52.404;16.942;2022-08-03T14:28:17;5.60;;;3.20;;
55815;SDS011;41744;52.404;16.942;2022-08-03T14:30:43;5.50;;;3.35;;
55815;SDS011;41744;52.404;16.942;2022-08-03T14:33:10;6.20;;;3.00;;
55815;SDS011;41744;52.404;16.942;2022-08-03T14:35:36;6.50;;;3.28;;
55815;SDS011;41744;52.404;16.942;2022-08-03T14:38:02;17.52;;;4.65;;
55815;SDS011;41744;52.404;16.942;2022-08-03T14:40:28;91.80;;;8.57;;
55815;SDS011;41744;52.404;16.942;2022-08-03T14:42:54;27.67;;;5.38;;
55815;SDS011;41744;52.404;16.942;2022-08-03T14:45:20;16.55;;;3.80;;
55815;SDS011;41744;52.404;16.942;2022-08-03T14:47:46;3.55;;;3.20;;
55815;SDS011;41744;52.404;16.942;2022-08-03T14:50:12;13.77;;;3.80;;
55815;SDS011;41744;52.404;16.942;2022-08-03T14:52:38;6.68;;;3.72;;
55815;SDS011;41744;52.404;16.942;2022-08-03T14:55:04;5.57;;;3.45;;
55815;SDS011;41744;52.404;16.942;2022-08-03T14:57:30;8.20;;;3.33;;
55815;SDS011;41744;52.404;16.942;2022-08-03T14:59:56;7.10;;;3.58;;
55815;SDS011;41744;52.404;16.942;2022-08-03T15:02:22;9.63;;;3.83;;
55815;SDS011;41744;52.404;16.942;2022-08-03T15:04:48;9.52;;;3.65;;
55815;SDS011;41744;52.404;16.942;2022-08-03T15:07:14;7.60;;;3.45;;